createdAt,value
2017-11-22T00:03:18.850Z,8.96
2017-11-22T00:09:24.097Z,8.90
2017-11-22T00:15:30.253Z,8.77
2017-11-22T00:21:34.599Z,8.72
2017-11-22T00:27:39.098Z,8.69
2017-11-22T00:33:43.876Z,8.68
2017-11-22T00:39:47.724Z,8.60
2017-11-22T00:45:51.389Z,8.56
2017-11-22T00:51:58.252Z,8.51
2017-11-22T00:58:03.627Z,8.51
2017-11-22T01:04:07.743Z,8.53
2017-11-22T01:10:11.509Z,8.53
2017-11-22T01:16:15.455Z,8.47
2017-11-22T01:22:19.483Z,8.44
2017-11-22T01:28:23.843Z,8.37
2017-11-22T01:34:27.441Z,8.44
2017-11-22T01:40:31.064Z,8.40
2017-11-22T01:46:35.401Z,8.40
2017-11-22T01:52:39.533Z,8.38
2017-11-22T01:58:43.166Z,8.32
2017-11-22T02:04:50.139Z,8.29
2017-11-22T02:10:56.148Z,8.26
2017-11-22T02:16:59.935Z,8.23
2017-11-22T02:23:04.309Z,8.23
2017-11-22T02:29:09.994Z,8.15
2017-11-22T02:35:14.690Z,8.14
2017-11-22T02:41:18.545Z,8.08
2017-11-22T02:47:22.502Z,8.11
2017-11-22T02:53:26.152Z,8.12
2017-11-22T02:59:33.293Z,8.19
2017-11-22T03:05:38.223Z,8.13
2017-11-22T03:11:41.893Z,8.13
2017-11-22T03:17:47.423Z,8.09
2017-11-22T03:23:52.616Z,8.05
2017-11-22T03:29:57.667Z,8.09
2017-11-22T03:36:01.365Z,8.15
2017-11-22T03:42:04.946Z,8.13
2017-11-22T03:48:15.399Z,8.17
2017-11-22T03:54:20.513Z,8.18
2017-11-22T04:00:24.156Z,8.10
2017-11-22T04:06:29.631Z,8.13
2017-11-22T04:25:33.365Z,7.82
2017-11-22T04:31:37.112Z,7.86
2017-11-22T04:37:41.897Z,7.93
2017-11-22T04:43:47.023Z,8.04
2017-11-22T04:49:54.107Z,8.08
2017-11-22T04:56:01.640Z,8.13
2017-11-22T05:02:05.446Z,8.14
2017-11-22T05:08:09.449Z,8.16
2017-11-22T05:14:14.588Z,8.21
2017-11-22T05:20:18.296Z,8.27
2017-11-22T05:26:23.487Z,8.36
2017-11-22T05:32:31.093Z,8.46
2017-11-22T05:38:36.525Z,8.42
2017-11-22T05:44:42.169Z,8.47
2017-11-22T05:50:46.260Z,8.47
2017-11-22T05:56:51.784Z,8.47
2017-11-22T06:02:56.272Z,8.56
2017-11-22T06:09:01.627Z,8.59
2017-11-22T06:15:07.029Z,8.63
2017-11-22T06:21:12.303Z,8.61
2017-11-22T07:26:13.850Z,8.75
2017-11-22T07:32:17.512Z,8.76
2017-11-22T07:38:21.127Z,8.81
2017-11-22T07:44:26.766Z,8.94
2017-11-22T07:50:32.411Z,9.01
2017-11-22T07:56:36.897Z,9.01
2017-11-22T08:09:14.275Z,9.05
2017-11-22T08:15:17.769Z,9.01
2017-11-22T08:21:22.024Z,9.06
2017-11-22T08:27:25.604Z,9.11
2017-11-22T08:33:29.441Z,9.26
2017-11-22T08:39:33.087Z,9.31
2017-11-22T08:45:36.620Z,9.28
2017-11-22T08:51:40.882Z,9.38
2017-11-22T08:57:49.899Z,9.48
2017-11-22T09:03:53.400Z,9.52
2017-11-22T09:09:56.896Z,9.61
2017-11-22T09:16:00.404Z,9.67
2017-11-22T09:22:03.926Z,9.71
2017-11-22T09:28:07.424Z,9.81
2017-11-22T09:34:16.461Z,9.88
2017-11-22T09:40:19.964Z,9.93
2017-11-22T09:46:24.235Z,9.98
2017-11-22T09:52:27.744Z,9.94
2017-11-22T09:58:32.060Z,9.95
2017-11-22T10:04:35.599Z,9.99
2017-11-22T10:10:39.141Z,10.02
2017-11-22T10:16:42.670Z,10.01
2017-11-22T10:22:46.195Z,10.03
2017-11-22T10:28:50.535Z,9.95
2017-11-22T10:34:54.054Z,9.90
2017-11-22T10:40:57.591Z,9.98
2017-11-22T10:47:01.165Z,10.03
2017-11-22T10:53:05.768Z,10.09
2017-11-22T10:59:10.053Z,10.13
2017-11-22T11:05:13.597Z,10.18
2017-11-22T11:11:17.129Z,10.28
2017-11-22T11:17:20.679Z,10.35
2017-11-22T11:23:24.209Z,10.44
2017-11-22T11:29:28.501Z,10.48
2017-11-22T11:35:49.828Z,10.52
2017-11-22T11:41:53.386Z,10.69
2017-11-22T11:47:56.945Z,10.90
2017-11-22T11:54:00.493Z,11.02
2017-11-22T12:00:04.035Z,11.01
2017-11-22T12:06:07.563Z,10.92
2017-11-22T12:12:12.835Z,10.87
2017-11-22T12:18:18.230Z,10.84
2017-11-22T12:24:21.809Z,10.83
2017-11-22T12:30:25.341Z,10.87
2017-11-22T12:36:28.889Z,11.23
2017-11-22T12:42:33.260Z,11.16
2017-11-22T12:48:36.788Z,11.28
2017-11-22T12:54:40.640Z,11.64
2017-11-22T13:00:44.924Z,11.66
2017-11-22T13:06:48.471Z,11.35
2017-11-22T13:12:52.001Z,11.10
2017-11-22T13:18:55.581Z,11.00
2017-11-22T13:24:59.092Z,11.03
2017-11-22T13:31:03.404Z,10.98
2017-11-22T13:37:06.923Z,10.93
2017-11-22T13:43:10.478Z,10.97
2017-11-22T13:49:14.024Z,10.98
2017-11-22T13:55:17.546Z,11.16
2017-11-22T14:01:22.319Z,11.35
2017-11-22T14:07:25.817Z,11.53
2017-11-22T14:13:29.428Z,11.74
2017-11-22T14:19:32.949Z,11.50
2017-11-22T14:25:36.781Z,11.26
2017-11-22T14:31:40.438Z,10.84
2017-11-22T14:37:43.966Z,10.53
2017-11-22T14:43:48.253Z,10.36
2017-11-22T14:49:51.773Z,9.91
2017-11-22T14:55:55.387Z,9.68
2017-11-22T15:01:58.920Z,9.47
2017-11-22T15:08:03.196Z,9.25
2017-11-22T15:14:06.705Z,8.95
2017-11-22T15:20:10.241Z,8.87
2017-11-22T15:26:13.762Z,8.66
2017-11-22T15:32:17.288Z,8.48
2017-11-22T15:38:20.825Z,8.37
2017-11-22T15:44:25.861Z,8.08
2017-11-22T15:50:29.388Z,7.77
2017-11-22T15:56:32.903Z,7.72
2017-11-22T16:02:36.468Z,7.74
2017-11-22T16:08:40.130Z,7.51
2017-11-22T16:14:44.429Z,7.25
2017-11-22T16:20:48.719Z,7.16
2017-11-22T16:26:53.015Z,6.94
2017-11-22T16:32:56.605Z,7.04
2017-11-22T16:39:00.897Z,7.19
2017-11-22T16:45:04.445Z,7.31
2017-11-22T16:51:07.956Z,7.18
2017-11-22T16:57:11.496Z,7.01
2017-11-22T17:03:15.028Z,6.74
2017-11-22T17:09:18.563Z,6.69
2017-11-22T17:15:22.169Z,6.72
2017-11-22T17:21:25.720Z,6.61
2017-11-22T17:27:30.077Z,6.50
2017-11-22T17:33:33.659Z,6.44
2017-11-22T17:39:37.233Z,6.29
2017-11-22T17:45:40.752Z,6.23
2017-11-22T17:51:44.291Z,6.21
2017-11-22T17:57:47.818Z,6.14
2017-11-22T18:03:51.380Z,6.06
2017-11-22T18:09:54.894Z,5.97
2017-11-22T18:15:58.420Z,5.95
2017-11-22T18:22:01.949Z,5.88
2017-11-22T18:28:05.501Z,5.90
2017-11-22T18:34:09.029Z,5.79
2017-11-22T18:40:12.570Z,5.63
2017-11-22T18:46:17.322Z,5.58
2017-11-22T18:52:20.903Z,5.50
2017-11-22T18:58:24.548Z,5.45
2017-11-22T19:04:28.097Z,5.52
2017-11-22T19:10:31.692Z,5.43
2017-11-22T19:16:35.257Z,5.44
2017-11-22T19:22:38.811Z,5.35
2017-11-22T19:28:42.361Z,5.17
2017-11-22T19:34:46.327Z,5.17
2017-11-22T19:40:49.972Z,5.03
2017-11-22T19:46:53.552Z,5.02
2017-11-22T19:52:57.118Z,5.03
2017-11-22T19:59:02.080Z,4.98
2017-11-22T20:05:05.655Z,5.00
2017-11-22T20:11:09.223Z,4.90
2017-11-22T20:17:13.669Z,4.77
2017-11-22T20:23:17.249Z,4.84
2017-11-22T20:29:21.057Z,4.89
2017-11-22T20:35:24.611Z,4.79
2017-11-22T20:41:28.140Z,4.61
2017-11-22T20:47:32.731Z,4.51
2017-11-22T20:53:37.152Z,4.55
2017-11-22T20:59:40.695Z,4.57
2017-11-22T21:05:44.371Z,4.49
2017-11-22T21:11:47.912Z,4.59
2017-11-22T21:17:51.545Z,4.69
2017-11-22T21:23:55.089Z,4.58
2017-11-22T21:29:58.633Z,4.55
2017-11-22T21:36:02.193Z,4.53
2017-11-22T21:42:05.857Z,4.69
2017-11-22T21:48:09.377Z,4.86
2017-11-22T21:54:13.245Z,4.77
2017-11-22T22:00:17.576Z,4.61
2017-11-22T22:06:21.110Z,4.64
2017-11-22T22:12:24.662Z,4.73
2017-11-22T22:18:28.225Z,4.98
2017-11-22T22:24:33.014Z,5.03
2017-11-22T22:30:36.540Z,5.08
2017-11-22T22:36:40.124Z,5.23
2017-11-22T22:42:43.684Z,5.19
2017-11-22T22:48:48.002Z,5.20
2017-11-22T22:54:51.543Z,5.06
2017-11-22T23:00:55.074Z,5.03
2017-11-22T23:06:58.640Z,4.91
2017-11-22T23:13:02.911Z,5.11
2017-11-22T23:19:06.523Z,4.98
2017-11-22T23:25:10.025Z,5.14
2017-11-22T23:31:14.576Z,5.22
2017-11-22T23:37:18.122Z,5.37
2017-11-22T23:43:22.421Z,5.42
2017-11-22T23:49:26.972Z,5.27
2017-11-22T23:55:30.791Z,5.45
